Time;durP1;ratioP1;P1;durP2;ratioP2;P2;SDS_P1;SDS_P2;PMS_P1;PMS_P2;Temp;Humidity;BMP_temperature;BMP_pressure;BME280_temperature;BME280_humidity;BME280_pressure;Samples;Min_cycle;Max_cycle;Signal;HPM_P1;HPM_P2
2023/05/24 00:01:13;;;;;;;2.10;1.40;;;13.80;75.50;;;;;;5006818;28;20458;-83
2023/05/24 00:03:52;;;;;;;2.77;1.63;;;13.70;75.90;;;;;;4991077;28;20461;-83
2023/05/24 00:06:43;;;;;;;5.73;1.87;;;13.50;76.30;;;;;;4990166;28;20451;-82
2023/05/24 00:09:19;;;;;;;3.50;1.43;;;13.70;76.30;;;;;;4994721;28;20834;-83
2023/05/24 00:12:05;;;;;;;6.10;2.10;;;13.60;75.90;;;;;;5008509;28;20585;-81
2023/05/24 00:14:48;;;;;;;4.67;1.70;;;13.60;75.80;;;;;;4980921;28;20482;-82
2023/05/24 00:17:40;;;;;;;3.33;1.40;;;13.50;76.40;;;;;;5003476;28;20925;-83
2023/05/24 00:20:45;;;;;;;4.87;1.37;;;13.60;77.10;;;;;;4987935;28;20459;-83
2023/05/24 00:23:41;;;;;;;3.37;1.63;;;13.40;76.30;;;;;;5011391;28;20459;-82
2023/05/24 00:26:28;;;;;;;3.50;1.80;;;13.60;75.90;;;;;;4993533;28;20506;-83
2023/05/24 00:29:05;;;;;;;8.07;1.83;;;13.60;75.60;;;;;;5002982;28;20471;-83
2023/05/24 00:31:54;;;;;;;2.93;1.23;;;13.50;75.50;;;;;;4991371;28;20467;-83
2023/05/24 00:34:26;;;;;;;3.73;1.43;;;13.50;75.40;;;;;;5007779;28;20474;-84
2023/05/24 00:36:55;;;;;;;2.10;1.40;;;13.30;75.40;;;;;;5008562;28;20459;-82
2023/05/24 00:39:37;;;;;;;1.90;1.73;;;13.30;76.10;;;;;;4994451;28;20455;-84
2023/05/24 00:42:13;;;;;;;3.30;1.90;;;13.30;76.10;;;;;;4994957;28;21055;-83
2023/05/24 00:44:53;;;;;;;4.77;2.03;;;13.20;76.30;;;;;;4989984;28;20799;-84
2023/05/24 00:47:23;;;;;;;3.63;1.50;;;13.30;76.50;;;;;;4990303;28;20577;-83
2023/05/24 00:49:53;;;;;;;4.03;1.70;;;13.20;76.80;;;;;;5011140;28;20438;-83
2023/05/24 00:52:31;;;;;;;3.10;1.50;;;13.30;77.10;;;;;;5023288;28;20467;-82
2023/05/24 00:55:08;;;;;;;5.10;1.97;;;13.40;75.70;;;;;;5017246;28;20578;-84
2023/05/24 00:57:51;;;;;;;4.90;1.97;;;13.20;76.40;;;;;;4992306;28;20507;-84
2023/05/24 01:00:58;;;;;;;2.07;1.13;;;13.20;77.00;;;;;;5006924;28;20785;-82
2023/05/24 01:03:40;;;;;;;2.47;1.20;;;13.20;77.00;;;;;;4995305;28;20959;-84
2023/05/24 01:10:41;;;;;;;3.90;1.70;;;13.10;77.60;;;;;;4973625;28;21013;-82
2023/05/24 01:17:49;;;;;;;6.40;1.80;;;12.80;78.30;;;;;;4931986;29;20565;-82
2023/05/24 01:20:54;;;;;;;4.60;1.57;;;13.00;78.30;;;;;;4930973;29;20549;-83
2023/05/24 01:23:43;;;;;;;3.37;1.47;;;12.90;79.10;;;;;;4928796;29;20458;-82
2023/05/24 01:26:46;;;;;;;3.60;1.63;;;13.00;79.00;;;;;;4923633;29;20537;-83
2023/05/24 01:29:52;;;;;;;;;;;;;;;;;;;;;
2023/05/24 01:32:44;;;;;;;4.43;1.77;;;13.00;78.40;;;;;;4922508;29;20522;-83
2023/05/24 01:35:50;;;;;;;2.90;1.50;;;12.90;78.90;;;;;;4911484;29;20484;-83
2023/05/24 01:46:49;;;;;;;2.00;1.60;;;12.70;80.50;;;;;;4922495;29;20997;-82
2023/05/24 01:49:43;;;;;;;2.13;1.30;;;12.70;81.30;;;;;;4911056;29;20469;-84
2023/05/24 01:52:35;;;;;;;15.03;1.97;;;12.60;81.50;;;;;;4916889;29;20520;-84
2023/05/24 01:55:15;;;;;;;3.70;1.73;;;12.60;81.70;;;;;;4945320;28;20489;-83
2023/05/24 01:58:00;;;;;;;6.40;2.07;;;12.60;81.80;;;;;;4949246;29;20482;-83
2023/05/24 02:00:55;;;;;;;4.00;1.90;;;12.60;82.10;;;;;;4953353;29;20587;-83
2023/05/24 02:03:36;;;;;;;4.90;2.63;;;12.60;82.30;;;;;;4950174;29;21165;-84
2023/05/24 02:06:15;;;;;;;6.07;1.77;;;12.60;82.50;;;;;;4946006;28;21002;-82
2023/05/24 02:08:56;;;;;;;9.87;1.87;;;12.80;81.80;;;;;;4949773;29;20521;-84
2023/05/24 02:12:01;;;;;;;1.67;1.47;;;12.60;81.90;;;;;;4945187;29;20515;-82
2023/05/24 02:15:09;;;;;;;1.50;1.20;;;12.50;82.30;;;;;;4958349;28;20480;-84
2023/05/24 02:17:53;;;;;;;3.90;1.53;;;12.40;82.80;;;;;;4945546;29;21001;-83
2023/05/24 02:20:51;;;;;;;4.97;1.20;;;12.40;83.10;;;;;;4953110;28;20584;-82
2023/05/24 02:23:44;;;;;;;6.37;2.10;;;12.30;83.30;;;;;;4954622;28;20533;-84
2023/05/24 02:26:19;;;;;;;9.20;2.40;;;12.30;83.50;;;;;;4951495;29;20480;-85
2023/05/24 02:29:12;;;;;;;4.07;1.90;;;12.20;83.80;;;;;;4958546;28;20483;-83
2023/05/24 02:31:58;;;;;;;2.40;1.30;;;12.20;83.90;;;;;;4949939;29;20900;-82
2023/05/24 02:34:48;;;;;;;6.20;1.67;;;12.20;84.10;;;;;;4955561;28;20505;-83
2023/05/24 02:37:41;;;;;;;9.23;2.50;;;12.20;84.40;;;;;;4951591;28;20448;-82
2023/05/24 02:40:38;;;;;;;3.47;1.33;;;12.10;84.30;;;;;;4954171;28;20956;-82
2023/05/24 02:43:28;;;;;;;5.33;1.30;;;12.10;84.80;;;;;;4951200;29;20928;-82
2023/05/24 02:46:43;;;;;;;5.60;1.53;;;12.10;85.10;;;;;;4950352;28;20467;-83
2023/05/24 02:49:41;;;;;;;4.70;1.70;;;12.10;85.40;;;;;;4881601;29;20608;-83
2023/05/24 02:52:22;;;;;;;6.00;1.73;;;12.10;85.40;;;;;;4955326;29;20449;-84
2023/05/24 02:54:52;;;;;;;7.23;2.00;;;12.10;85.80;;;;;;4953738;29;20479;-83
2023/05/24 02:57:33;;;;;;;4.33;1.97;;;12.10;85.90;;;;;;4968257;28;20445;-84
2023/05/24 03:00:12;;;;;;;2.70;1.50;;;12.20;86.10;;;;;;4955215;28;20495;-83
2023/05/24 03:02:46;;;;;;;6.97;1.50;;;12.20;86.10;;;;;;4947113;29;20482;-85
2023/05/24 03:05:54;;;;;;;5.37;1.67;;;12.10;86.20;;;;;;4970299;28;20475;-83
2023/05/24 03:09:08;;;;;;;3.40;2.00;;;12.10;86.50;;;;;;4953111;29;20416;-84
2023/05/24 03:11:55;;;;;;;5.90;1.80;;;12.10;86.70;;;;;;4914343;29;20445;-81
2023/05/24 03:15:03;;;;;;;7.17;1.97;;;12.10;86.70;;;;;;4925901;29;20461;-82
2023/05/24 03:21:27;;;;;;;3.10;1.60;;;12.00;87.60;;;;;;4901910;29;20481;-82
2023/05/24 03:24:34;;;;;;;10.47;2.17;;;12.00;88.00;;;;;;4928672;29;20488;-82
2023/05/24 03:27:14;;;;;;;6.87;1.67;;;11.90;88.20;;;;;;4915796;29;20452;-84
2023/05/24 03:30:05;;;;;;;4.30;1.67;;;11.90;88.60;;;;;;4928154;29;20449;-84
2023/05/24 03:32:45;;;;;;;5.70;2.20;;;12.00;88.80;;;;;;4919760;29;20556;-82
2023/05/24 03:35:28;;;;;;;;;;;;;;;;;;;;;
2023/05/24 03:38:19;;;;;;;;;;;;;;;;;;;;;
2023/05/24 03:41:33;;;;;;;3.60;1.63;;;11.90;89.30;;;;;;4969185;28;20579;-82
2023/05/24 03:44:53;;;;;;;;;;;;;;;;;;;;;
2023/05/24 03:48:23;;;;;;;;;;;;;;;;;;;;;
2023/05/24 03:51:44;;;;;;;6.47;1.90;;;11.90;89.90;;;;;;4967768;29;20431;-82
2023/05/24 03:54:44;;;;;;;4.10;1.80;;;11.80;90.10;;;;;;4957506;28;20444;-83
2023/05/24 03:57:36;;;;;;;4.50;1.67;;;11.80;90.40;;;;;;4951058;29;20439;-84
2023/05/24 04:00:31;;;;;;;3.93;1.93;;;11.80;90.50;;;;;;4953531;28;20484;-82
2023/05/24 04:03:18;;;;;;;2.80;1.80;;;11.80;90.70;;;;;;4954285;28;20480;-82
2023/05/24 04:06:17;;;;;;;8.50;2.30;;;11.80;90.70;;;;;;4961524;28;20486;-83
2023/05/24 04:09:18;;;;;;;5.43;2.53;;;11.80;90.90;;;;;;4948524;29;20484;-84
2023/05/24 04:12:15;;;;;;;4.50;1.77;;;11.90;91.00;;;;;;4952323;28;20453;-85
2023/05/24 04:15:05;;;;;;;7.27;2.00;;;11.80;91.00;;;;;;4952938;28;20591;-83
2023/05/24 04:17:36;;;;;;;11.60;2.50;;;11.80;91.20;;;;;;4951816;29;20436;-81
2023/05/24 04:20:52;;;;;;;3.40;1.57;;;11.80;91.20;;;;;;4969535;28;20597;-82
2023/05/24 04:23:59;;;;;;;5.23;2.00;;;11.80;91.40;;;;;;4969534;28;20452;-82
2023/05/24 04:26:43;;;;;;;5.50;2.13;;;11.90;91.60;;;;;;4953314;29;20457;-82
2023/05/24 04:32:23;;;;;;;5.00;2.00;;;11.90;91.60;;;;;;4951641;29;20508;-84
2023/05/24 04:35:54;;;;;;;;;;;;;;;;;;;;;
2023/05/24 04:39:17;;;;;;;4.77;2.20;;;12.00;91.60;;;;;;4946220;28;20558;-85
2023/05/24 04:42:13;;;;;;;6.33;2.10;;;11.90;91.70;;;;;;4955159;28;20460;-82
2023/05/24 04:45:43;;;;;;;5.87;2.40;;;12.00;91.80;;;;;;4956176;29;20465;-85
2023/05/24 04:49:11;;;;;;;4.40;2.20;;;12.00;91.80;;;;;;4957986;28;20419;-84
2023/05/24 04:52:51;;;;;;;3.53;1.73;;;12.20;91.50;;;;;;4903330;29;20454;-84
2023/05/24 05:00:09;;;;;;;6.57;2.53;;;12.50;91.30;;;;;;4800922;29;20483;-83
2023/05/24 05:17:59;;;;;;;6.23;2.43;;;12.40;91.90;;;;;;5024244;28;20525;-83
2023/05/24 05:20:56;;;;;;;6.40;3.13;;;12.50;92.10;;;;;;5014930;28;20453;-80
2023/05/24 05:23:47;;;;;;;2.13;1.93;;;12.50;92.00;;;;;;4993020;28;20446;-82
2023/05/24 05:26:30;;;;;;;6.00;2.20;;;12.30;92.10;;;;;;4993024;28;20446;-82
2023/05/24 05:29:24;;;;;;;6.30;2.17;;;12.60;92.10;;;;;;4993220;28;20509;-83
2023/05/24 05:32:50;;;;;;;6.93;2.67;;;12.70;91.80;;;;;;4929612;29;20461;-82
2023/05/24 05:35:53;;;;;;;5.73;2.17;;;12.70;91.80;;;;;;4935351;29;20504;-84
2023/05/24 05:38:39;;;;;;;5.43;2.40;;;12.70;92.10;;;;;;4950376;29;20560;-82
2023/05/24 05:41:18;;;;;;;5.10;2.33;;;12.60;92.20;;;;;;4947136;29;20468;-83
2023/05/24 05:44:13;;;;;;;8.23;2.70;;;12.70;92.50;;;;;;4949778;29;20516;-83
2023/05/24 05:47:50;;;;;;;5.77;2.77;;;12.90;91.80;;;;;;4933701;29;20446;-84
2023/05/24 05:50:20;;;;;;;6.47;2.70;;;12.60;92.00;;;;;;4940854;29;20464;-82
2023/05/24 05:53:32;;;;;;;;;;;;;;;;;;;;;
2023/05/24 05:57:24;;;;;;;5.47;2.17;;;12.70;92.50;;;;;;4957103;29;21263;-83
2023/05/24 06:00:45;;;;;;;5.80;2.60;;;12.80;92.50;;;;;;4842987;29;20501;-84
2023/05/24 06:07:50;;;;;;;5.83;2.50;;;13.00;92.20;;;;;;4990856;28;20513;-83
2023/05/24 06:11:33;;;;;;;10.00;2.83;;;13.40;91.80;;;;;;4990076;28;20880;-84
2023/05/24 06:19:04;;;;;;;5.70;2.67;;;13.50;91.50;;;;;;4957727;28;20495;-82
2023/05/24 06:22:16;;;;;;;6.77;3.37;;;13.60;91.40;;;;;;4986219;28;20431;-83
2023/05/24 06:30:03;;;;;;;;;;;;;;;;;;;;;
2023/05/24 06:49:23;;;;;;;;;;;;;;;;;;;;;
2023/05/24 06:53:06;;;;;;;7.57;2.80;;;14.40;86.20;;;;;;4798398;29;20559;-82
2023/05/24 07:01:03;;;;;;;13.20;3.20;;;14.60;83.80;;;;;;4818366;29;20494;-82
2023/05/24 07:04:27;;;;;;;6.87;2.80;;;15.00;85.70;;;;;;4846506;29;20992;-82
2023/05/24 07:07:22;;;;;;;5.70;2.33;;;14.90;85.20;;;;;;4842378;29;20470;-83
2023/05/24 07:21:12;;;;;;;6.73;2.60;;;15.30;80.60;;;;;;4804240;29;20486;-83
2023/05/24 07:24:02;;;;;;;9.97;2.57;;;15.50;80.80;;;;;;4812849;29;20466;-84
2023/05/24 07:26:57;;;;;;;8.47;2.10;;;15.50;81.20;;;;;;4866329;29;20464;-82
2023/05/24 07:30:20;;;;;;;5.50;2.10;;;15.40;80.50;;;;;;4883708;29;20451;-82
2023/05/24 07:32:59;;;;;;;6.40;2.30;;;15.40;80.00;;;;;;4911435;29;20457;-82
2023/05/24 07:36:01;;;;;;;7.73;2.10;;;15.40;78.60;;;;;;4942356;29;20477;-82
2023/05/24 07:39:03;;;;;;;;;;;;;;;;;;;;;
2023/05/24 07:41:53;;;;;;;8.00;3.13;;;15.50;78.90;;;;;;4996762;28;20443;-81
2023/05/24 07:44:32;;;;;;;8.40;2.37;;;15.70;79.60;;;;;;5011166;28;20460;-81
2023/05/24 07:50:51;;;;;;;9.20;3.70;;;15.70;78.00;;;;;;5010614;28;20431;-82
2023/05/24 07:53:38;;;;;;;5.37;2.50;;;15.70;77.80;;;;;;5027657;28;20458;-81
2023/05/24 07:56:17;;;;;;;4.13;2.70;;;15.70;77.50;;;;;;5007070;28;20478;-82
2023/05/24 07:59:22;;;;;;;;;;;;;;;;;;;;;
2023/05/24 08:02:30;;;;;;;6.23;2.60;;;15.50;78.60;;;;;;4989035;28;20432;-82
2023/05/24 08:06:11;;;;;;;8.97;2.60;;;16.00;77.90;;;;;;4936768;29;20473;-82
2023/05/24 08:09:00;;;;;;;3.90;2.47;;;16.00;76.90;;;;;;4933515;29;20456;-85
2023/05/24 08:12:12;;;;;;;6.20;2.63;;;16.30;75.00;;;;;;4941902;29;20457;-84
2023/05/24 08:15:01;;;;;;;2.60;2.20;;;16.10;74.10;;;;;;4914252;29;21308;-83
2023/05/24 08:17:53;;;;;;;5.70;2.50;;;17.70;70.20;;;;;;4938962;29;20445;-84
2023/05/24 08:21:03;;;;;;;5.00;2.20;;;17.80;66.70;;;;;;4935271;29;20517;-84
2023/05/24 08:23:56;;;;;;;5.90;2.40;;;18.40;62.80;;;;;;4955566;28;20529;-84
2023/05/24 08:27:23;;;;;;;;;;;;;;;;;;;;;
2023/05/24 08:31:11;;;;;;;5.10;2.33;;;18.00;66.90;;;;;;4995378;28;20439;-83
2023/05/24 08:41:15;;;;;;;2.97;2.10;;;18.10;62.40;;;;;;4915558;29;20531;-82
2023/05/24 08:47:21;;;;;;;;;;;;;;;;;;;;;
2023/05/24 08:50:36;;;;;;;5.80;2.63;;;18.50;60.00;;;;;;4895191;29;20487;-82
2023/05/24 08:57:25;;;;;;;4.57;2.83;;;17.60;63.70;;;;;;4900289;29;20575;-85
2023/05/24 09:00:03;;;;;;;6.20;2.87;;;17.50;64.90;;;;;;4900825;29;20475;-82
2023/05/24 09:02:31;;;;;;;8.27;3.30;;;17.70;63.60;;;;;;4892706;29;20491;-83
2023/05/24 09:04:59;;;;;;;5.10;2.60;;;17.70;62.90;;;;;;4883590;29;20474;-84
2023/05/24 09:07:29;;;;;;;5.00;3.47;;;18.10;62.90;;;;;;4882477;29;20463;-83
2023/05/24 09:10:07;;;;;;;5.03;2.70;;;18.20;61.00;;;;;;4890656;29;20482;-84
2023/05/24 09:12:39;;;;;;;5.30;2.37;;;17.50;61.50;;;;;;4884726;29;20474;-84
2023/05/24 09:15:08;;;;;;;5.07;2.50;;;17.50;62.50;;;;;;4880435;29;20942;-83
2023/05/24 09:17:39;;;;;;;5.87;2.90;;;17.10;63.80;;;;;;4880355;29;20478;-82
2023/05/24 09:20:09;;;;;;;4.63;2.87;;;16.70;64.80;;;;;;4884575;29;20494;-82
2023/05/24 09:22:41;;;;;;;5.40;2.80;;;16.40;66.30;;;;;;4886221;29;20456;-82
2023/05/24 09:25:12;;;;;;;4.87;3.37;;;16.70;66.80;;;;;;4884309;29;20515;-83
2023/05/24 09:27:47;;;;;;;5.47;3.10;;;16.70;65.70;;;;;;4946807;29;20532;-84
2023/05/24 09:30:15;;;;;;;7.90;3.60;;;16.30;66.90;;;;;;4957950;29;20848;-83
2023/05/24 09:32:57;;;;;;;5.60;3.57;;;16.20;68.30;;;;;;4953910;29;20461;-83
2023/05/24 09:35:26;;;;;;;5.87;3.00;;;16.00;69.10;;;;;;4956678;28;20556;-82
2023/05/24 09:37:58;;;;;;;6.10;4.17;;;16.00;69.90;;;;;;4942831;29;20465;-83
2023/05/24 09:40:28;;;;;;;6.40;3.30;;;16.00;70.10;;;;;;4948059;29;20486;-83
2023/05/24 09:43:08;;;;;;;12.17;4.00;;;16.20;70.30;;;;;;4945640;29;20549;-84
2023/05/24 09:45:48;;;;;;;8.27;3.83;;;16.40;69.10;;;;;;4949681;29;20568;-84
2023/05/24 09:48:17;;;;;;;8.63;4.10;;;17.50;68.40;;;;;;4946472;29;20453;-83
2023/05/24 09:51:04;;;;;;;8.53;5.60;;;18.80;63.50;;;;;;4949158;29;20473;-83
2023/05/24 09:53:34;;;;;;;5.50;4.13;;;20.90;57.80;;;;;;4952661;29;20457;-84
2023/05/24 09:56:04;;;;;;;4.40;3.90;;;21.80;55.00;;;;;;4952164;28;20547;-83
2023/05/24 09:58:32;;;;;;;5.73;5.17;;;21.50;53.90;;;;;;4955622;29;20488;-82
2023/05/24 10:01:09;;;;;;;7.30;4.80;;;20.10;54.80;;;;;;4951756;29;20477;-83
2023/05/24 10:03:37;;;;;;;4.97;3.83;;;19.20;56.50;;;;;;4950744;29;20449;-83
2023/05/24 10:06:06;;;;;;;6.70;4.30;;;18.60;57.90;;;;;;4968120;28;20516;-83
2023/05/24 10:08:37;;;;;;;7.33;5.73;;;18.30;59.10;;;;;;4958340;28;20550;-83
2023/05/24 10:11:05;;;;;;;6.70;4.03;;;18.50;59.70;;;;;;4953802;29;20465;-83
2023/05/24 10:13:35;;;;;;;10.13;6.30;;;18.30;59.00;;;;;;4953645;29;20488;-82
2023/05/24 10:16:03;;;;;;;11.20;6.23;;;17.70;60.10;;;;;;4956906;28;20495;-84
2023/05/24 10:18:30;;;;;;;11.93;7.20;;;17.30;63.20;;;;;;4952845;29;20454;-84
2023/05/24 10:21:00;;;;;;;9.50;6.37;;;17.20;64.60;;;;;;4950368;28;21303;-82
2023/05/24 10:23:31;;;;;;;8.53;5.67;;;17.10;65.30;;;;;;4950746;28;20559;-82
2023/05/24 10:26:07;;;;;;;7.00;6.20;;;17.00;65.10;;;;;;4954536;29;20484;-83
2023/05/24 10:28:41;;;;;;;8.50;6.23;;;17.00;65.30;;;;;;4955528;28;20528;-83
2023/05/24 10:31:16;;;;;;;8.30;6.10;;;16.90;65.80;;;;;;4953603;29;20465;-83
2023/05/24 10:33:47;;;;;;;8.90;6.60;;;17.00;66.40;;;;;;4955289;29;20464;-83
2023/05/24 10:36:15;;;;;;;11.90;6.40;;;17.10;66.20;;;;;;4953903;28;20482;-85
2023/05/24 10:38:44;;;;;;;9.83;6.87;;;17.20;65.90;;;;;;4953980;29;20470;-84
2023/05/24 10:41:12;;;;;;;5.33;4.70;;;17.30;65.30;;;;;;4950475;29;20568;-84
2023/05/24 10:43:39;;;;;;;4.93;3.90;;;17.60;63.90;;;;;;4945674;29;20456;-83
2023/05/24 10:46:09;;;;;;;5.30;4.00;;;17.70;61.70;;;;;;4955873;28;20585;-84
2023/05/24 10:48:40;;;;;;;4.73;3.80;;;17.70;61.20;;;;;;4952727;29;20848;-85
2023/05/24 10:51:39;;;;;;;5.63;4.00;;;17.90;60.60;;;;;;4955742;29;20512;-85
2023/05/24 10:54:12;;;;;;;7.23;5.10;;;18.00;60.40;;;;;;4955331;28;20456;-83
2023/05/24 10:56:50;;;;;;;7.47;4.63;;;18.20;60.10;;;;;;4947303;29;20471;-83
2023/05/24 10:59:38;;;;;;;11.17;6.10;;;18.00;60.90;;;;;;4941169;29;21171;-83
2023/05/24 11:02:08;;;;;;;11.53;6.30;;;17.50;62.90;;;;;;4948638;29;20984;-84
2023/05/24 11:04:37;;;;;;;10.80;6.93;;;17.20;64.00;;;;;;4947891;28;21128;-83
2023/05/24 11:07:09;;;;;;;10.67;6.30;;;17.10;65.10;;;;;;4944665;29;20475;-84
2023/05/24 11:09:45;;;;;;;11.63;5.00;;;17.30;66.00;;;;;;4951056;29;20840;-83
2023/05/24 11:12:16;;;;;;;9.60;5.47;;;17.80;64.30;;;;;;4951550;29;20476;-84
2023/05/24 11:14:49;;;;;;;5.43;4.83;;;17.80;62.90;;;;;;4953363;29;20477;-84
2023/05/24 11:17:19;;;;;;;7.23;4.30;;;18.10;62.70;;;;;;4952808;29;20885;-84
2023/05/24 11:19:50;;;;;;;6.60;5.90;;;18.10;61.50;;;;;;4947436;28;20491;-83
2023/05/24 11:22:21;;;;;;;10.50;5.23;;;18.30;58.70;;;;;;4958575;29;20448;-84
2023/05/24 11:24:48;;;;;;;6.60;5.23;;;18.10;59.40;;;;;;4954380;28;20495;-83
2023/05/24 11:27:16;;;;;;;8.80;5.60;;;18.00;59.60;;;;;;4955277;29;20553;-84
2023/05/24 11:29:46;;;;;;;6.30;4.53;;;18.00;59.90;;;;;;4949341;29;20475;-83
2023/05/24 11:32:15;;;;;;;6.97;5.57;;;18.00;60.70;;;;;;4957432;29;20459;-82
2023/05/24 11:34:46;;;;;;;6.20;5.60;;;18.40;59.90;;;;;;4956141;28;20517;-85
2023/05/24 11:37:14;;;;;;;7.73;5.60;;;18.10;61.50;;;;;;4957873;29;20475;-84
2023/05/24 11:39:50;;;;;;;7.70;6.90;;;18.30;61.40;;;;;;4955079;29;20504;-83
2023/05/24 11:42:17;;;;;;;8.20;5.50;;;18.10;61.40;;;;;;4956667;28;20637;-84
2023/05/24 11:44:48;;;;;;;8.20;5.33;;;17.90;62.10;;;;;;4958159;28;21011;-83
2023/05/24 11:47:15;;;;;;;6.73;5.37;;;17.90;61.90;;;;;;4952817;29;20513;-86
2023/05/24 11:49:48;;;;;;;12.37;5.17;;;17.80;61.90;;;;;;4955595;29;20472;-83
2023/05/24 11:52:16;;;;;;;5.97;4.33;;;17.80;61.20;;;;;;4950461;29;20550;-83
2023/05/24 11:54:43;;;;;;;8.83;4.90;;;17.50;60.80;;;;;;4949263;29;20489;-83
2023/05/24 11:57:14;;;;;;;8.47;4.33;;;17.30;61.60;;;;;;4950820;29;20572;-82
2023/05/24 11:59:43;;;;;;;8.00;5.20;;;17.50;62.70;;;;;;4955957;29;20491;-82
2023/05/24 12:02:11;;;;;;;5.23;4.70;;;17.50;61.60;;;;;;4952818;28;20468;-82
2023/05/24 12:04:39;;;;;;;9.50;4.90;;;17.50;61.60;;;;;;4955582;28;20556;-83
2023/05/24 12:07:11;;;;;;;5.37;4.23;;;17.30;62.70;;;;;;4953876;29;20509;-83
2023/05/24 12:09:38;;;;;;;6.30;4.40;;;17.30;63.00;;;;;;4956244;28;20479;-83
2023/05/24 12:12:06;;;;;;;7.30;4.03;;;17.50;62.80;;;;;;4958531;29;20765;-85
2023/05/24 12:15:22;;;;;;;6.97;4.13;;;17.80;60.80;;;;;;4975595;22;20502;-84
2023/05/24 12:18:02;;;;;;;8.17;4.00;;;17.60;60.70;;;;;;4983887;28;20594;-83
2023/05/24 12:20:29;;;;;;;5.87;3.50;;;17.20;61.60;;;;;;4997304;28;20470;-83
2023/05/24 12:22:56;;;;;;;6.43;3.47;;;17.20;62.70;;;;;;4999773;28;20454;-84
2023/05/24 12:25:25;;;;;;;3.80;3.50;;;17.10;62.50;;;;;;4993015;28;20463;-84
2023/05/24 12:27:55;;;;;;;4.97;3.33;;;17.60;61.90;;;;;;4996655;28;20870;-85
2023/05/24 12:30:26;;;;;;;8.10;3.20;;;17.60;61.60;;;;;;4994514;28;20454;-84
2023/05/24 12:32:53;;;;;;;7.10;3.60;;;17.60;60.70;;;;;;4996722;28;20526;-86
2023/05/24 12:35:21;;;;;;;5.63;2.90;;;17.80;60.60;;;;;;5001181;28;20786;-86
2023/05/24 12:37:48;;;;;;;5.37;3.50;;;17.80;60.50;;;;;;5001433;28;20455;-84
2023/05/24 12:40:20;;;;;;;4.70;2.90;;;17.60;60.80;;;;;;5009926;28;20483;-86
2023/05/24 12:42:52;;;;;;;8.40;3.50;;;17.60;61.60;;;;;;5003943;28;20893;-84
2023/05/24 12:45:24;;;;;;;5.10;3.43;;;17.60;62.20;;;;;;5031345;28;20455;-85
2023/05/24 12:47:56;;;;;;;6.10;3.13;;;17.60;62.20;;;;;;5013084;28;20463;-86
2023/05/24 12:50:25;;;;;;;7.50;2.97;;;17.80;62.40;;;;;;5015355;28;20459;-85
2023/05/24 12:52:54;;;;;;;8.53;3.40;;;17.90;60.90;;;;;;5005596;28;20463;-83
2023/05/24 12:55:26;;;;;;;5.77;4.00;;;18.10;60.00;;;;;;5015826;28;20494;-85
2023/05/24 12:57:55;;;;;;;3.40;2.80;;;18.20;59.70;;;;;;5012803;28;20538;-84
2023/05/24 13:00:27;;;;;;;5.40;4.23;;;18.10;59.70;;;;;;5005293;28;20466;-84
2023/05/24 13:02:57;;;;;;;6.73;4.20;;;18.40;59.70;;;;;;5017049;28;20451;-84
2023/05/24 13:16:15;;;;;;;6.03;3.47;;;18.60;58.90;;;;;;5017315;28;20490;-84
2023/05/24 13:19:10;;;;;;;8.07;3.30;;;19.20;57.50;;;;;;5014189;28;20453;-84
2023/05/24 13:22:13;;;;;;;3.50;2.60;;;19.50;57.00;;;;;;4952846;28;20477;-87
2023/05/24 13:27:39;;;;;;;;;;;;;;;;;;;;;
2023/05/24 13:30:46;;;;;;;5.87;3.33;;;18.70;58.50;;;;;;5010597;28;20520;-85
2023/05/24 13:33:53;;;;;;;8.33;3.20;;;18.70;58.50;;;;;;5005904;28;20479;-87
2023/05/24 13:37:09;;;;;;;;;;;;;;;;;;;;;
2023/05/24 13:40:19;;;;;;;4.33;2.67;;;18.40;58.70;;;;;;4944272;29;20453;-86
2023/05/24 13:43:15;;;;;;;8.17;3.20;;;18.30;59.40;;;;;;4943739;28;20461;-85
2023/05/24 13:46:09;;;;;;;4.20;2.80;;;18.10;59.80;;;;;;4985441;28;20450;-85
2023/05/24 13:49:13;;;;;;;6.60;2.67;;;18.00;60.40;;;;;;5019583;28;20447;-86
2023/05/24 13:51:42;;;;;;;6.03;2.73;;;18.20;60.70;;;;;;5015798;28;20522;-87
2023/05/24 13:54:24;;;;;;;5.37;2.60;;;18.20;59.80;;;;;;5017890;28;20449;-86
2023/05/24 13:57:25;;;;;;;3.23;2.40;;;17.90;59.90;;;;;;5011859;28;20449;-84
2023/05/24 14:09:46;;;;;;;6.87;2.50;;;18.20;60.90;;;;;;2385531;26;20987;-86
2023/05/24 14:12:53;;;;;;;5.53;2.63;;;18.10;61.00;;;;;;5006597;28;20468;-85
2023/05/24 14:22:24;;;;;;;5.23;3.03;;;18.50;59.50;;;;;;4887270;29;20516;-86
2023/05/24 14:25:26;;;;;;;5.13;2.30;;;18.90;58.70;;;;;;5039138;23;20528;-85
2023/05/24 14:32:15;;;;;;;6.83;2.90;;;18.60;59.70;;;;;;4943922;29;21172;-84
2023/05/24 14:38:24;;;;;;;6.57;2.87;;;18.60;59.80;;;;;;4855304;29;20862;-87
2023/05/24 14:48:47;;;;;;;4.97;2.60;;;18.60;59.70;;;;;;4878653;29;20457;-83
2023/05/24 14:51:53;;;;;;;7.50;2.80;;;18.30;61.10;;;;;;4877171;28;20447;-84
2023/05/24 14:54:48;;;;;;;7.70;3.40;;;18.60;61.40;;;;;;4930536;28;20463;-84
2023/05/24 14:57:36;;;;;;;5.90;3.30;;;18.80;60.60;;;;;;4907641;29;20573;-85
2023/05/24 15:00:35;;;;;;;5.53;3.80;;;18.60;60.90;;;;;;4897291;29;20529;-85
2023/05/24 15:04:04;;;;;;;4.10;2.90;;;18.70;61.10;;;;;;4846024;29;20465;-86
2023/05/24 15:07:14;;;;;;;4.50;2.23;;;18.90;60.50;;;;;;4848429;29;20475;-85
2023/05/24 15:09:57;;;;;;;6.07;3.20;;;19.30;59.10;;;;;;4846282;29;20900;-85
2023/05/24 15:13:08;;;;;;;4.60;2.70;;;19.10;59.80;;;;;;4896619;29;20469;-86
2023/05/24 15:16:35;;;;;;;4.23;3.23;;;19.00;59.90;;;;;;4920796;29;20470;-87
2023/05/24 15:19:44;;;;;;;4.77;3.27;;;19.00;59.90;;;;;;4914408;29;20484;-85
2023/05/24 15:25:58;;;;;;;7.20;3.30;;;19.00;59.80;;;;;;5012403;23;20495;-85
2023/05/24 15:29:05;;;;;;;7.40;3.93;;;19.00;60.00;;;;;;5012125;28;20474;-85
2023/05/24 15:32:22;;;;;;;;;;;;;;;;;;;;;
2023/05/24 15:38:17;;;;;;;6.27;3.40;;;19.20;59.30;;;;;;5015769;23;20486;-85
2023/05/24 15:42:29;;;;;;;;;;;;;;;;;;;;;
2023/05/24 15:45:52;;;;;;;8.20;3.30;;;18.70;60.00;;;;;;4994706;28;20461;-86
2023/05/24 15:52:21;;;;;;;7.50;3.60;;;18.40;61.50;;;;;;4952277;29;20520;-86
2023/05/24 15:55:35;;;;;;;3.30;3.00;;;18.20;62.80;;;;;;4982678;23;20478;-85
2023/05/24 16:01:54;;;;;;;4.30;3.57;;;17.90;63.70;;;;;;4963210;28;20511;-86
2023/05/24 16:05:01;;;;;;;4.97;3.50;;;17.90;64.70;;;;;;4975301;28;20464;-87
2023/05/24 16:11:02;;;;;;;5.97;3.83;;;18.10;63.90;;;;;;5007029;28;20478;-85
2023/05/24 16:14:07;;;;;;;4.30;3.43;;;17.90;64.50;;;;;;4999515;28;20447;-85
2023/05/24 16:16:58;;;;;;;5.70;3.30;;;17.70;64.80;;;;;;4987065;28;20447;-85
2023/05/24 16:20:06;;;;;;;4.33;3.37;;;17.80;64.80;;;;;;4992423;28;20571;-87
2023/05/24 16:23:03;;;;;;;4.00;3.17;;;17.60;64.50;;;;;;4996819;28;20468;-86
2023/05/24 16:26:02;;;;;;;5.30;3.30;;;17.90;65.20;;;;;;4913799;29;20498;-84
2023/05/24 16:29:05;;;;;;;4.17;3.00;;;17.90;63.60;;;;;;4920741;28;20463;-86
2023/05/24 16:32:00;;;;;;;;;;;;;;;;;;;;;
2023/05/24 16:34:53;;;;;;;4.30;3.80;;;17.70;64.60;;;;;;4996596;28;20671;-85
2023/05/24 16:37:48;;;;;;;4.27;3.23;;;17.90;64.80;;;;;;5006736;28;20443;-87
2023/05/24 16:40:45;;;;;;;7.97;3.20;;;17.90;63.50;;;;;;5008590;28;20433;-85
2023/05/24 16:43:33;;;;;;;;;;;;;;;;;;;;;
2023/05/24 16:47:02;;;;;;;7.00;4.00;;;18.20;64.40;;;;;;4992918;28;20450;-85
2023/05/24 16:54:07;;;;;;;;;;;;;;;;;;;;;
2023/05/24 16:56:53;;;;;;;5.20;3.27;;;18.10;64.40;;;;;;5030062;23;20498;-85
2023/05/24 16:59:39;;;;;;;6.40;2.90;;;18.00;64.80;;;;;;5014528;28;20545;-85
2023/05/24 17:02:23;;;;;;;8.30;3.63;;;17.70;65.30;;;;;;5024098;28;20536;-85
2023/05/24 17:05:07;;;;;;;11.40;4.23;;;17.60;65.20;;;;;;5001508;28;21033;-85
2023/05/24 17:07:47;;;;;;;5.27;3.30;;;17.60;65.50;;;;;;4981352;28;20531;-85
2023/05/24 17:10:35;;;;;;;4.30;3.47;;;17.70;65.80;;;;;;4995855;28;20459;-85
2023/05/24 17:13:06;;;;;;;4.53;3.20;;;17.70;65.60;;;;;;4998771;28;20455;-85
2023/05/24 17:15:52;;;;;;;6.23;2.70;;;17.70;65.30;;;;;;5000530;28;20472;-85
2023/05/24 17:18:35;;;;;;;3.37;3.07;;;17.60;65.90;;;;;;4997699;28;20482;-85
2023/05/24 17:21:20;;;;;;;5.10;3.00;;;17.60;65.60;;;;;;5016204;28;20480;-84
2023/05/24 17:27:15;;;;;;;3.10;2.80;;;17.50;66.50;;;;;;4988560;28;20463;-84
2023/05/24 17:29:59;;;;;;;4.37;3.23;;;17.50;66.60;;;;;;4987321;28;20456;-87
2023/05/24 17:32:37;;;;;;;9.63;4.10;;;17.50;65.80;;;;;;4996021;28;20506;-86
2023/05/24 17:35:21;;;;;;;7.70;3.20;;;17.30;66.50;;;;;;4984125;28;21182;-86
2023/05/24 17:38:16;;;;;;;4.10;3.40;;;17.30;67.20;;;;;;4998238;28;20545;-83
2023/05/24 17:40:57;;;;;;;5.70;3.23;;;17.30;67.40;;;;;;4997445;28;20722;-87
2023/05/24 17:47:21;;;;;;;3.77;3.40;;;17.40;67.40;;;;;;5019495;23;21418;-86
2023/05/24 17:49:58;;;;;;;4.97;3.17;;;17.50;67.60;;;;;;5001801;28;20459;-86
2023/05/24 17:52:59;;;;;;;5.00;2.87;;;17.80;67.40;;;;;;4992189;28;20450;-85
2023/05/24 17:55:59;;;;;;;5.13;2.70;;;17.80;66.50;;;;;;5041910;22;20473;-86
2023/05/24 17:59:26;;;;;;;10.50;2.90;;;17.70;66.80;;;;;;5032847;28;21016;-86
2023/05/24 18:02:45;;;;;;;4.23;2.90;;;17.80;66.90;;;;;;4993568;28;20482;-88